Time;durP1;ratioP1;P1;durP2;ratioP2;P2;SDS_P1;SDS_P2;PMS_P1;PMS_P2;Temp;Humidity;BMP_temperature;BMP_pressure;BME280_temperature;BME280_humidity;BME280_pressure;Samples;Min_cycle;Max_cycle;Signal;HPM_P1;HPM_P2
2022/09/24 00:01:44;;;;;;;15.15;10.57;;;;;;;;;;5003132;28;20065;-76
2022/09/24 00:04:11;;;;;;;15.65;10.70;;;;;;;;;;5006189;28;20060;-75
2022/09/24 00:06:40;;;;;;;14.70;10.02;;;;;;;;;;5005418;28;20057;-76
2022/09/24 00:09:05;;;;;;;14.75;10.48;;;;;;;;;;5004319;28;20034;-75
2022/09/24 00:11:31;;;;;;;16.40;10.90;;;;;;;;;;4998918;28;20030;-75
2022/09/24 00:13:57;;;;;;;15.68;10.48;;;;;;;;;;4998602;28;20026;-77
2022/09/24 00:16:27;;;;;;;15.48;10.38;;;;;;;;;;5002801;28;20044;-76
2022/09/24 00:18:53;;;;;;;16.15;10.88;;;;;;;;;;5008054;28;20030;-75
2022/09/24 00:21:22;;;;;;;17.48;11.45;;;;;;;;;;4999210;28;20038;-76
2022/09/24 00:23:50;;;;;;;16.65;10.25;;;;;;;;;;5004533;28;20091;-76
2022/09/24 00:28:59;;;;;;;14.88;10.35;;;;;;;;;;4995907;28;20041;-75
2022/09/24 00:31:25;;;;;;;15.25;10.65;;;;;;;;;;5003682;28;20487;-75
2022/09/24 00:33:53;;;;;;;16.77;10.85;;;;;;;;;;5002295;28;20453;-76
2022/09/24 00:36:20;;;;;;;14.85;10.20;;;;;;;;;;5002536;28;20029;-77
2022/09/24 00:38:51;;;;;;;18.35;12.13;;;;;;;;;;4998407;28;20030;-75
2022/09/24 00:41:22;;;;;;;17.95;12.25;;;;;;;;;;5003953;28;20541;-75
2022/09/24 00:43:49;;;;;;;16.60;11.52;;;;;;;;;;5017312;28;20134;-75
2022/09/24 00:46:42;;;;;;;16.27;11.90;;;;;;;;;;5002341;28;20065;-77
2022/09/24 00:49:14;;;;;;;18.40;11.80;;;;;;;;;;4997919;28;20030;-76
2022/09/24 00:51:42;;;;;;;17.90;12.18;;;;;;;;;;5003208;28;20401;-75
2022/09/24 00:54:13;;;;;;;16.95;11.20;;;;;;;;;;5005343;28;20052;-76
2022/09/24 00:56:40;;;;;;;17.38;12.50;;;;;;;;;;4998744;28;20126;-76
2022/09/24 00:59:09;;;;;;;16.17;10.88;;;;;;;;;;5004635;28;20037;-76
2022/09/24 01:01:35;;;;;;;16.83;11.18;;;;;;;;;;5002892;28;20026;-80
2022/09/24 01:04:01;;;;;;;16.70;10.85;;;;;;;;;;5003598;28;20082;-76
2022/09/24 01:06:27;;;;;;;17.13;11.10;;;;;;;;;;5002272;28;20041;-78
2022/09/24 01:08:55;;;;;;;14.75;10.27;;;;;;;;;;5003575;28;20042;-76
2022/09/24 01:11:44;;;;;;;14.35;9.88;;;;;;;;;;4998821;28;20038;-79
2022/09/24 01:14:22;;;;;;;16.05;10.57;;;;;;;;;;5003305;28;20038;-76
2022/09/24 01:17:15;;;;;;;15.07;10.38;;;;;;;;;;5004090;28;20509;-76
2022/09/24 01:19:46;;;;;;;16.23;10.10;;;;;;;;;;5001391;28;20041;-75
2022/09/24 01:22:24;;;;;;;13.15;9.55;;;;;;;;;;4999248;28;21189;-76
2022/09/24 01:25:00;;;;;;;13.70;9.65;;;;;;;;;;5019107;28;20386;-75
2022/09/24 01:28:03;;;;;;;15.02;9.70;;;;;;;;;;5001372;28;20040;-77
2022/09/24 01:30:32;;;;;;;14.10;9.43;;;;;;;;;;5007560;28;20551;-75
2022/09/24 01:33:02;;;;;;;14.07;9.65;;;;;;;;;;5010698;28;20833;-76
2022/09/24 01:35:33;;;;;;;13.35;8.65;;;;;;;;;;5007049;28;20032;-76
2022/09/24 01:38:08;;;;;;;12.88;8.98;;;;;;;;;;5007100;28;20533;-75
2022/09/24 01:40:35;;;;;;;12.18;8.00;;;;;;;;;;5023061;28;20429;-75
2022/09/24 01:43:03;;;;;;;13.60;9.07;;;;;;;;;;5003776;28;20267;-78
2022/09/24 01:45:30;;;;;;;12.48;7.97;;;;;;;;;;5001969;28;20056;-75
2022/09/24 01:47:59;;;;;;;13.45;8.73;;;;;;;;;;5004527;28;20034;-75
2022/09/24 01:50:28;;;;;;;11.95;8.35;;;;;;;;;;4997888;28;20029;-78
2022/09/24 01:53:07;;;;;;;12.52;8.15;;;;;;;;;;5014959;28;20479;-77
2022/09/24 01:55:37;;;;;;;14.20;8.65;;;;;;;;;;5003199;28;20128;-78
2022/09/24 01:58:15;;;;;;;11.38;7.30;;;;;;;;;;5017176;28;20117;-76
2022/09/24 02:00:44;;;;;;;11.95;7.95;;;;;;;;;;5002751;28;20018;-78
2022/09/24 02:03:17;;;;;;;12.30;8.25;;;;;;;;;;5007179;28;20026;-77
2022/09/24 02:06:07;;;;;;;11.07;7.35;;;;;;;;;;5003316;28;21190;-75
2022/09/24 02:08:38;;;;;;;11.60;7.57;;;;;;;;;;4998545;28;20516;-76
2022/09/24 02:11:10;;;;;;;11.80;7.68;;;;;;;;;;5000287;28;20029;-75
2022/09/24 02:13:46;;;;;;;10.83;7.63;;;;;;;;;;5010421;28;20055;-75
2022/09/24 02:16:19;;;;;;;9.98;7.10;;;;;;;;;;5002254;28;20036;-75
2022/09/24 02:18:49;;;;;;;12.43;7.45;;;;;;;;;;5006469;28;20029;-76
2022/09/24 02:21:17;;;;;;;10.77;7.20;;;;;;;;;;5003354;28;20532;-76
2022/09/24 02:23:55;;;;;;;11.60;7.20;;;;;;;;;;5005343;28;20033;-75
2022/09/24 02:26:21;;;;;;;10.50;7.13;;;;;;;;;;5001963;28;20026;-75
2022/09/24 02:28:46;;;;;;;10.63;6.97;;;;;;;;;;4995712;28;20044;-78
2022/09/24 02:31:17;;;;;;;10.50;6.95;;;;;;;;;;5035111;28;20026;-75
2022/09/24 02:36:29;;;;;;;11.48;6.88;;;;;;;;;;4999880;28;20036;-75
2022/09/24 02:38:55;;;;;;;11.10;6.95;;;;;;;;;;5003196;28;20470;-75
2022/09/24 02:41:22;;;;;;;13.88;8.02;;;;;;;;;;5000091;28;20463;-76
2022/09/24 02:43:49;;;;;;;10.45;6.47;;;;;;;;;;5001743;28;20025;-75
2022/09/24 02:46:14;;;;;;;11.50;7.10;;;;;;;;;;5005946;28;20034;-75
2022/09/24 02:48:39;;;;;;;10.70;6.93;;;;;;;;;;5006710;28;20033;-75
2022/09/24 02:51:05;;;;;;;10.00;6.75;;;;;;;;;;5007096;28;20048;-75
2022/09/24 02:53:31;;;;;;;10.75;7.40;;;;;;;;;;5004179;28;20018;-75
2022/09/24 02:55:59;;;;;;;10.00;6.65;;;;;;;;;;5003319;28;20517;-75
2022/09/24 02:58:25;;;;;;;10.75;6.97;;;;;;;;;;5004113;28;20058;-76
2022/09/24 03:00:50;;;;;;;11.55;7.25;;;;;;;;;;5008931;28;20496;-75
2022/09/24 03:03:16;;;;;;;10.77;6.80;;;;;;;;;;5006132;28;20383;-77
2022/09/24 03:05:41;;;;;;;10.85;7.10;;;;;;;;;;5001264;28;20041;-76
2022/09/24 03:08:06;;;;;;;12.57;7.07;;;;;;;;;;4998066;28;20029;-78
2022/09/24 03:10:32;;;;;;;10.10;6.60;;;;;;;;;;5003583;28;20029;-75
2022/09/24 03:12:58;;;;;;;10.63;6.78;;;;;;;;;;5003171;28;20061;-76
2022/09/24 03:15:24;;;;;;;10.93;7.13;;;;;;;;;;5007401;28;20022;-75
2022/09/24 03:17:50;;;;;;;11.32;7.22;;;;;;;;;;4997996;28;20367;-75
2022/09/24 03:20:15;;;;;;;12.40;7.10;;;;;;;;;;5005848;28;20026;-75
2022/09/24 03:22:41;;;;;;;10.40;6.60;;;;;;;;;;5007478;28;20646;-75
2022/09/24 03:25:07;;;;;;;11.07;6.68;;;;;;;;;;5002733;28;20033;-75
2022/09/24 03:27:33;;;;;;;10.95;6.80;;;;;;;;;;5007890;28;20120;-74
2022/09/24 03:32:42;;;;;;;11.52;7.05;;;;;;;;;;5006356;28;20514;-76
2022/09/24 03:35:07;;;;;;;10.60;6.63;;;;;;;;;;5000866;28;20045;-79
2022/09/24 03:37:35;;;;;;;12.05;7.85;;;;;;;;;;4999264;28;20408;-77
2022/09/24 03:40:01;;;;;;;10.48;7.13;;;;;;;;;;5006189;28;20018;-75
2022/09/24 03:42:27;;;;;;;10.45;7.25;;;;;;;;;;5004537;28;20025;-76
2022/09/24 03:44:53;;;;;;;10.85;6.68;;;;;;;;;;5005872;28;20096;-75
2022/09/24 03:47:18;;;;;;;11.80;7.43;;;;;;;;;;5008533;28;20037;-76
2022/09/24 03:49:44;;;;;;;12.60;7.82;;;;;;;;;;5009548;28;20394;-75
2022/09/24 03:52:09;;;;;;;12.50;7.72;;;;;;;;;;5002947;28;20030;-76
2022/09/24 03:54:34;;;;;;;11.68;7.30;;;;;;;;;;5003044;28;20478;-77
2022/09/24 03:57:00;;;;;;;11.65;7.82;;;;;;;;;;5002471;28;20014;-76
2022/09/24 03:59:25;;;;;;;11.52;8.02;;;;;;;;;;5007007;28;20116;-75
2022/09/24 04:01:50;;;;;;;10.65;7.15;;;;;;;;;;5003296;28;20670;-75
2022/09/24 04:04:16;;;;;;;12.13;7.95;;;;;;;;;;5004415;28;20084;-75
2022/09/24 04:06:41;;;;;;;12.82;7.80;;;;;;;;;;5000759;28;20046;-77
2022/09/24 04:09:07;;;;;;;11.18;7.88;;;;;;;;;;5003629;28;21158;-76
2022/09/24 04:11:35;;;;;;;12.38;7.28;;;;;;;;;;5002767;28;20081;-75
2022/09/24 04:14:01;;;;;;;12.05;7.38;;;;;;;;;;5003914;28;21844;-76
2022/09/24 04:16:26;;;;;;;13.60;7.55;;;;;;;;;;5005188;28;20045;-75
2022/09/24 04:18:54;;;;;;;12.50;7.30;;;;;;;;;;5003611;28;20059;-76
2022/09/24 04:21:20;;;;;;;12.88;7.65;;;;;;;;;;5002629;28;20038;-76
2022/09/24 04:23:46;;;;;;;10.00;6.72;;;;;;;;;;4996702;28;20068;-75
2022/09/24 04:26:11;;;;;;;13.02;7.53;;;;;;;;;;5002542;28;20049;-75
2022/09/24 04:28:36;;;;;;;11.98;8.10;;;;;;;;;;5008256;28;20057;-75
2022/09/24 04:31:02;;;;;;;13.15;7.68;;;;;;;;;;5007688;28;20029;-75
2022/09/24 04:33:28;;;;;;;10.88;7.85;;;;;;;;;;5000016;28;20088;-76
2022/09/24 04:35:53;;;;;;;11.20;7.85;;;;;;;;;;5001165;28;20063;-76
2022/09/24 04:38:20;;;;;;;12.05;7.38;;;;;;;;;;5006139;28;20367;-76
2022/09/24 04:40:46;;;;;;;11.95;7.78;;;;;;;;;;5003503;28;20064;-77
2022/09/24 04:43:12;;;;;;;11.73;7.90;;;;;;;;;;5003598;28;20617;-76
2022/09/24 04:45:38;;;;;;;12.35;8.48;;;;;;;;;;5006849;28;20029;-76
2022/09/24 04:48:03;;;;;;;12.57;8.27;;;;;;;;;;5002262;28;20405;-76
2022/09/24 04:50:33;;;;;;;11.40;7.82;;;;;;;;;;5001315;28;20030;-75
2022/09/24 04:52:59;;;;;;;11.02;7.55;;;;;;;;;;4998550;28;20022;-76
2022/09/24 04:55:26;;;;;;;15.82;8.30;;;;;;;;;;5000915;28;20108;-77
2022/09/24 04:57:57;;;;;;;11.05;7.60;;;;;;;;;;5032403;28;20443;-75
2022/09/24 05:00:23;;;;;;;11.07;7.13;;;;;;;;;;5002412;28;20034;-75
2022/09/24 05:02:57;;;;;;;9.95;7.00;;;;;;;;;;5002735;28;20022;-75
2022/09/24 05:05:22;;;;;;;10.48;7.20;;;;;;;;;;5003201;28;20034;-80
2022/09/24 05:07:48;;;;;;;10.82;6.72;;;;;;;;;;5005741;28;20037;-75
2022/09/24 05:10:13;;;;;;;11.38;6.68;;;;;;;;;;5004544;28;20433;-77
2022/09/24 05:12:40;;;;;;;10.63;6.40;;;;;;;;;;5000854;28;20147;-75
2022/09/24 05:15:06;;;;;;;11.43;7.38;;;;;;;;;;5007610;28;20034;-77
2022/09/24 05:17:31;;;;;;;9.27;6.18;;;;;;;;;;5002666;28;20659;-75
2022/09/24 05:19:58;;;;;;;10.23;6.60;;;;;;;;;;4996429;28;20590;-75
2022/09/24 05:22:24;;;;;;;11.18;6.72;;;;;;;;;;5003788;28;20127;-75
2022/09/24 05:24:50;;;;;;;10.05;6.00;;;;;;;;;;4995730;28;20037;-75
2022/09/24 05:27:15;;;;;;;8.93;6.85;;;;;;;;;;4998795;28;20029;-75
2022/09/24 05:29:42;;;;;;;10.10;6.53;;;;;;;;;;5002795;28;20026;-76
2022/09/24 05:32:14;;;;;;;8.68;5.97;;;;;;;;;;5000011;28;20466;-75
2022/09/24 05:34:42;;;;;;;8.27;5.93;;;;;;;;;;4997146;28;20026;-78
2022/09/24 05:37:08;;;;;;;8.20;5.53;;;;;;;;;;5025775;28;20041;-75
2022/09/24 05:39:33;;;;;;;8.55;6.00;;;;;;;;;;4997173;28;20537;-75
2022/09/24 05:41:58;;;;;;;9.15;6.05;;;;;;;;;;4996982;28;20042;-77
2022/09/24 05:44:24;;;;;;;9.57;6.68;;;;;;;;;;5011420;28;20461;-75
2022/09/24 05:46:51;;;;;;;9.48;6.63;;;;;;;;;;5000738;28;20033;-75
2022/09/24 05:49:16;;;;;;;9.20;6.22;;;;;;;;;;4991974;28;20399;-79
2022/09/24 05:51:42;;;;;;;9.85;6.07;;;;;;;;;;4990134;28;20486;-75
2022/09/24 05:54:09;;;;;;;10.02;6.97;;;;;;;;;;5002746;28;20376;-76
2022/09/24 05:56:34;;;;;;;9.93;7.07;;;;;;;;;;4994775;28;21479;-75
2022/09/24 05:59:00;;;;;;;9.38;6.28;;;;;;;;;;5000724;28;20026;-75
2022/09/24 06:01:28;;;;;;;9.80;6.90;;;;;;;;;;5012081;28;20478;-76
2022/09/24 06:03:58;;;;;;;10.05;7.15;;;;;;;;;;5001276;28;20038;-75
2022/09/24 06:06:24;;;;;;;9.93;7.00;;;;;;;;;;5026468;28;20208;-75
2022/09/24 06:08:50;;;;;;;11.40;7.22;;;;;;;;;;5001407;28;20434;-77
2022/09/24 06:11:16;;;;;;;10.35;6.60;;;;;;;;;;5013860;28;20037;-76
2022/09/24 06:13:41;;;;;;;10.57;7.57;;;;;;;;;;5002093;28;20394;-78
2022/09/24 06:16:08;;;;;;;9.90;6.68;;;;;;;;;;5003578;28;20026;-75
2022/09/24 06:18:37;;;;;;;11.90;7.60;;;;;;;;;;4999632;28;20026;-79
2022/09/24 06:21:06;;;;;;;11.10;6.90;;;;;;;;;;4999616;28;20054;-76
2022/09/24 06:23:32;;;;;;;12.05;7.43;;;;;;;;;;5000457;28;20149;-77
2022/09/24 06:25:58;;;;;;;12.00;7.68;;;;;;;;;;5005361;28;20022;-75
2022/09/24 06:28:26;;;;;;;10.93;7.47;;;;;;;;;;4998337;28;20025;-76
2022/09/24 06:30:52;;;;;;;10.90;7.32;;;;;;;;;;5002613;28;20030;-75
2022/09/24 06:33:19;;;;;;;10.65;7.47;;;;;;;;;;5010616;28;20023;-79
2022/09/24 06:35:44;;;;;;;10.38;7.25;;;;;;;;;;4998062;28;20025;-76
2022/09/24 06:38:13;;;;;;;12.27;7.10;;;;;;;;;;4997159;28;20080;-75
2022/09/24 06:40:39;;;;;;;12.13;7.40;;;;;;;;;;5026326;28;20112;-76
2022/09/24 06:43:05;;;;;;;10.23;7.05;;;;;;;;;;4994888;28;20950;-75
2022/09/24 06:45:31;;;;;;;11.02;7.88;;;;;;;;;;5023072;28;20072;-75
2022/09/24 06:47:58;;;;;;;10.43;7.20;;;;;;;;;;5000080;28;20069;-75
2022/09/24 06:50:26;;;;;;;10.52;7.80;;;;;;;;;;5000445;28;20466;-75
2022/09/24 06:52:52;;;;;;;11.68;7.55;;;;;;;;;;4994691;28;20382;-76
2022/09/24 06:55:17;;;;;;;10.30;7.45;;;;;;;;;;5007367;28;20063;-76
2022/09/24 06:57:43;;;;;;;11.73;7.38;;;;;;;;;;4994480;28;20026;-75
2022/09/24 07:00:11;;;;;;;10.95;7.15;;;;;;;;;;4995954;28;20081;-75
2022/09/24 07:02:36;;;;;;;10.15;7.00;;;;;;;;;;4985070;28;20034;-76
2022/09/24 07:05:01;;;;;;;11.95;7.93;;;;;;;;;;4999984;28;20092;-76
2022/09/24 07:07:32;;;;;;;11.10;7.50;;;;;;;;;;4999129;28;20049;-75
2022/09/24 07:10:02;;;;;;;10.82;7.00;;;;;;;;;;5003049;28;20401;-76
2022/09/24 07:12:29;;;;;;;10.75;7.40;;;;;;;;;;5001284;28;22094;-76
2022/09/24 07:14:55;;;;;;;11.25;7.88;;;;;;;;;;5003003;28;20076;-76
2022/09/24 07:17:21;;;;;;;9.98;6.88;;;;;;;;;;5002518;28;20034;-76
2022/09/24 07:19:46;;;;;;;11.25;7.28;;;;;;;;;;4999660;28;20479;-76
2022/09/24 07:22:12;;;;;;;10.50;6.82;;;;;;;;;;4998043;28;20417;-80
2022/09/24 07:24:37;;;;;;;10.30;7.70;;;;;;;;;;4999806;28;20030;-76
2022/09/24 07:27:04;;;;;;;10.05;7.10;;;;;;;;;;4998923;28;20030;-76
2022/09/24 07:29:29;;;;;;;10.85;7.00;;;;;;;;;;4992247;28;20563;-76
2022/09/24 07:31:55;;;;;;;10.20;6.85;;;;;;;;;;4996140;28;20029;-75
2022/09/24 07:34:21;;;;;;;9.70;7.35;;;;;;;;;;4995322;28;20203;-78
2022/09/24 07:36:47;;;;;;;11.55;7.82;;;;;;;;;;5007830;28;20542;-75
2022/09/24 07:39:13;;;;;;;10.93;7.65;;;;;;;;;;4999824;28;20034;-78
2022/09/24 07:41:40;;;;;;;8.77;6.50;;;;;;;;;;4997825;28;20555;-78
2022/09/24 07:44:06;;;;;;;12.30;7.60;;;;;;;;;;4995809;28;20073;-79
2022/09/24 07:46:32;;;;;;;11.07;6.95;;;;;;;;;;4995163;28;20037;-75
2022/09/24 07:48:57;;;;;;;8.90;6.47;;;;;;;;;;4999041;28;20096;-77
2022/09/24 07:51:24;;;;;;;10.70;7.07;;;;;;;;;;4995190;28;20044;-76
2022/09/24 07:53:50;;;;;;;11.52;7.22;;;;;;;;;;4994477;28;20038;-76
2022/09/24 07:56:16;;;;;;;11.30;7.93;;;;;;;;;;4998668;28;20137;-75
2022/09/24 07:58:42;;;;;;;10.38;7.30;;;;;;;;;;4998662;28;20068;-76
2022/09/24 08:01:07;;;;;;;10.02;6.78;;;;;;;;;;5001511;28;20026;-79
2022/09/24 08:03:32;;;;;;;11.30;7.38;;;;;;;;;;4999051;28;20386;-76
2022/09/24 08:06:00;;;;;;;10.77;7.60;;;;;;;;;;4999963;28;20048;-78
2022/09/24 08:08:25;;;;;;;9.50;6.60;;;;;;;;;;4999154;28;20026;-76
2022/09/24 08:10:50;;;;;;;10.15;7.00;;;;;;;;;;4996550;28;20021;-76
2022/09/24 08:13:16;;;;;;;10.05;7.20;;;;;;;;;;5001040;28;20549;-75
2022/09/24 08:15:41;;;;;;;12.05;7.35;;;;;;;;;;4997854;28;20033;-78
2022/09/24 08:18:07;;;;;;;10.02;6.88;;;;;;;;;;4996864;28;20026;-77
2022/09/24 08:20:33;;;;;;;10.68;7.40;;;;;;;;;;4995948;28;20046;-77
2022/09/24 08:23:03;;;;;;;10.38;7.80;;;;;;;;;;4992712;28;20199;-77
2022/09/24 08:25:30;;;;;;;12.68;6.72;;;;;;;;;;4994610;28;20087;-76
2022/09/24 08:27:59;;;;;;;10.07;6.65;;;;;;;;;;4996707;28;20026;-76
2022/09/24 08:30:25;;;;;;;10.45;7.13;;;;;;;;;;4996600;28;20461;-77
2022/09/24 08:32:50;;;;;;;10.10;6.30;;;;;;;;;;5010652;28;20029;-80
2022/09/24 08:35:15;;;;;;;10.15;6.93;;;;;;;;;;5000169;28;20029;-80
2022/09/24 08:37:41;;;;;;;11.80;7.65;;;;;;;;;;4999905;28;20034;-76
2022/09/24 08:40:15;;;;;;;10.07;6.97;;;;;;;;;;5003621;28;20061;-76
2022/09/24 08:42:48;;;;;;;9.75;6.70;;;;;;;;;;5002419;28;20033;-76
2022/09/24 08:48:13;;;;;;;11.18;7.65;;;;;;;;;;4997657;28;20100;-76
2022/09/24 08:50:47;;;;;;;9.43;6.72;;;;;;;;;;4999666;28;20026;-76
2022/09/24 08:53:23;;;;;;;11.45;7.85;;;;;;;;;;5029562;28;20034;-76
2022/09/24 08:55:53;;;;;;;11.15;7.63;;;;;;;;;;4999265;28;20042;-75
2022/09/24 08:58:21;;;;;;;10.88;7.35;;;;;;;;;;5001163;28;20018;-76
2022/09/24 09:00:55;;;;;;;10.23;7.32;;;;;;;;;;5001776;28;20040;-76
2022/09/24 09:03:43;;;;;;;9.07;5.95;;;;;;;;;;5003750;28;20033;-76
2022/09/24 09:06:18;;;;;;;9.32;6.32;;;;;;;;;;4996096;28;20030;-75
2022/09/24 09:09:02;;;;;;;12.90;8.15;;;;;;;;;;5017851;28;20034;-75
2022/09/24 09:11:31;;;;;;;10.43;7.05;;;;;;;;;;5032792;28;21732;-76
2022/09/24 09:14:09;;;;;;;10.13;6.63;;;;;;;;;;5007031;28;20036;-75
2022/09/24 09:16:53;;;;;;;10.80;7.25;;;;;;;;;;5005322;28;20058;-76
2022/09/24 09:19:25;;;;;;;10.63;7.10;;;;;;;;;;5001089;28;20392;-75
2022/09/24 09:21:58;;;;;;;10.30;7.40;;;;;;;;;;5014610;28;20052;-77
2022/09/24 09:24:34;;;;;;;15.13;7.68;;;;;;;;;;4995820;28;20559;-77
2022/09/24 09:27:00;;;;;;;9.98;6.45;;;;;;;;;;5002119;28;20033;-76
2022/09/24 09:29:26;;;;;;;10.30;6.68;;;;;;;;;;4999306;28;20102;-77
2022/09/24 09:32:31;;;;;;;10.95;7.70;;;;;;;;;;5004738;28;20032;-76
2022/09/24 09:35:18;;;;;;;11.57;6.68;;;;;;;;;;5020171;28;20414;-76
2022/09/24 09:37:54;;;;;;;13.38;6.60;;;;;;;;;;5002150;28;20101;-77
2022/09/24 09:40:34;;;;;;;13.40;6.60;;;;;;;;;;5006372;28;20032;-76
2022/09/24 09:43:08;;;;;;;9.32;6.38;;;;;;;;;;5008297;28;20034;-75
2022/09/24 09:45:52;;;;;;;10.02;7.15;;;;;;;;;;5038364;28;20026;-79
2022/09/24 09:48:21;;;;;;;9.85;6.75;;;;;;;;;;4995996;28;20490;-77
2022/09/24 09:50:52;;;;;;;10.55;7.30;;;;;;;;;;5034539;28;20025;-75
2022/09/24 09:53:25;;;;;;;9.82;7.13;;;;;;;;;;5007563;28;20030;-76
2022/09/24 09:56:00;;;;;;;10.85;7.05;;;;;;;;;;5006524;28;20456;-76
2022/09/24 09:58:28;;;;;;;10.80;6.90;;;;;;;;;;5009477;28;20018;-76
2022/09/24 10:01:06;;;;;;;11.93;7.18;;;;;;;;;;5004984;28;20025;-76
2022/09/24 10:03:45;;;;;;;12.38;8.52;;;;;;;;;;5003659;28;20116;-77
2022/09/24 10:06:27;;;;;;;10.35;7.00;;;;;;;;;;5003695;28;20576;-76
2022/09/24 10:08:52;;;;;;;10.98;7.50;;;;;;;;;;5013470;28;20061;-76
2022/09/24 10:11:19;;;;;;;11.73;7.72;;;;;;;;;;5007327;28;20090;-77
2022/09/24 10:13:44;;;;;;;10.05;6.82;;;;;;;;;;5004846;28;20029;-75
2022/09/24 10:16:14;;;;;;;13.23;7.63;;;;;;;;;;5012536;28;20030;-75
2022/09/24 10:18:46;;;;;;;11.52;7.32;;;;;;;;;;5014847;28;20377;-75
2022/09/24 10:21:35;;;;;;;13.30;7.88;;;;;;;;;;5007296;28;20070;-77
2022/09/24 10:24:10;;;;;;;9.80;6.63;;;;;;;;;;5002868;28;20034;-76
2022/09/24 10:26:38;;;;;;;11.20;7.50;;;;;;;;;;5030588;28;20030;-75
2022/09/24 10:31:49;;;;;;;14.85;8.15;;;;;;;;;;5002649;28;20238;-76
2022/09/24 10:34:28;;;;;;;11.65;7.75;;;;;;;;;;5005784;28;20025;-75
2022/09/24 10:37:00;;;;;;;10.45;7.32;;;;;;;;;;4999482;28;20033;-78
2022/09/24 10:39:26;;;;;;;11.80;7.68;;;;;;;;;;4994711;28;20033;-78
2022/09/24 10:41:57;;;;;;;9.57;6.82;;;;;;;;;;5032102;28;20148;-78
2022/09/24 10:44:28;;;;;;;9.43;6.40;;;;;;;;;;4998616;28;20706;-76
2022/09/24 10:47:21;;;;;;;8.43;5.47;;;;;;;;;;5008267;28;20037;-76
2022/09/24 10:49:57;;;;;;;10.95;7.22;;;;;;;;;;5003751;28;20038;-76
2022/09/24 10:52:44;;;;;;;12.25;6.57;;;;;;;;;;4995196;28;20498;-79
2022/09/24 10:55:46;;;;;;;10.60;7.65;;;;;;;;;;4999440;28;20022;-77
2022/09/24 10:58:28;;;;;;;9.15;6.30;;;;;;;;;;4999500;28;20040;-75
2022/09/24 11:01:25;;;;;;;9.57;6.20;;;;;;;;;;5000862;28;20034;-77
2022/09/24 11:03:54;;;;;;;10.10;6.80;;;;;;;;;;5004644;28;20033;-75
2022/09/24 11:06:25;;;;;;;11.05;7.40;;;;;;;;;;5003408;28;20045;-76
2022/09/24 11:09:02;;;;;;;11.02;7.47;;;;;;;;;;4995044;28;20426;-80
2022/09/24 11:11:49;;;;;;;10.75;7.35;;;;;;;;;;4990702;28;20076;-77
2022/09/24 11:14:39;;;;;;;9.60;6.57;;;;;;;;;;5019925;28;20700;-75
2022/09/24 11:17:16;;;;;;;10.88;6.93;;;;;;;;;;5007474;28;20121;-76
2022/09/24 11:19:54;;;;;;;8.95;5.97;;;;;;;;;;5004115;28;20030;-75
2022/09/24 11:22:25;;;;;;;9.90;6.65;;;;;;;;;;4999739;28;20054;-76
2022/09/24 11:25:12;;;;;;;12.13;8.20;;;;;;;;;;5003929;28;20034;-75
2022/09/24 11:28:10;;;;;;;10.95;7.97;;;;;;;;;;5000305;28;20033;-75
2022/09/24 11:30:47;;;;;;;10.75;6.95;;;;;;;;;;5011429;28;20553;-77
2022/09/24 11:33:58;;;;;;;11.27;7.90;;;;;;;;;;4997368;28;20038;-76
2022/09/24 11:36:54;;;;;;;10.38;6.75;;;;;;;;;;4993941;28;20550;-76
2022/09/24 11:39:54;;;;;;;10.25;7.32;;;;;;;;;;4997425;28;20021;-77
2022/09/24 11:42:44;;;;;;;12.05;7.18;;;;;;;;;;5001268;28;20114;-75
2022/09/24 11:45:45;;;;;;;11.55;7.65;;;;;;;;;;4999124;28;20045;-77
2022/09/24 11:48:29;;;;;;;12.43;8.25;;;;;;;;;;4998521;28;20084;-76
2022/09/24 11:51:30;;;;;;;11.18;7.30;;;;;;;;;;5034251;28;20041;-76
2022/09/24 11:53:55;;;;;;;8.70;5.50;;;;;;;;;;5024560;28;20071;-79
2022/09/24 11:56:35;;;;;;;13.02;6.88;;;;;;;;;;5004697;28;20034;-76
2022/09/24 11:59:15;;;;;;;11.68;8.00;;;;;;;;;;5004346;28;20513;-77
2022/09/24 12:01:49;;;;;;;10.38;6.78;;;;;;;;;;5032678;28;20056;-76
2022/09/24 12:04:41;;;;;;;13.45;8.57;;;;;;;;;;5020209;28;20050;-79
2022/09/24 12:07:18;;;;;;;12.05;7.97;;;;;;;;;;5008617;28;20026;-76
2022/09/24 12:10:12;;;;;;;12.07;8.35;;;;;;;;;;5002473;28;20025;-76
2022/09/24 12:12:41;;;;;;;9.68;7.03;;;;;;;;;;5003302;28;21623;-76
2022/09/24 12:15:28;;;;;;;13.38;8.65;;;;;;;;;;5006712;28;20033;-77
2022/09/24 12:18:05;;;;;;;14.02;8.65;;;;;;;;;;5003975;28;20030;-76
2022/09/24 12:20:35;;;;;;;15.88;9.20;;;;;;;;;;5007098;28;20414;-77
2022/09/24 12:23:08;;;;;;;11.50;7.68;;;;;;;;;;5005386;28;20085;-78
2022/09/24 12:25:41;;;;;;;13.90;9.38;;;;;;;;;;5004583;28;20034;-78
2022/09/24 12:32:53;;;;;;;13.70;9.20;;;;;;;;;;5004941;28;20025;-77
2022/09/24 12:34:28;;;;;;;14.52;8.82;;;;;;;;;;5003812;28;20509;-76
2022/09/24 12:37:16;;;;;;;14.20;9.63;;;;;;;;;;5004772;28;20041;-77
2022/09/24 12:39:51;;;;;;;14.93;9.27;;;;;;;;;;4994966;28;20356;-76
2022/09/24 12:42:20;;;;;;;12.93;9.32;;;;;;;;;;4997963;28;20288;-76
2022/09/24 12:44:51;;;;;;;14.02;9.13;;;;;;;;;;4996403;28;20056;-76
2022/09/24 12:47:23;;;;;;;12.13;8.52;;;;;;;;;;5002656;28;20037;-79
2022/09/24 12:49:59;;;;;;;12.15;9.30;;;;;;;;;;4998686;28;20030;-77
2022/09/24 12:52:38;;;;;;;12.77;9.00;;;;;;;;;;5003780;28;20034;-76
2022/09/24 12:55:04;;;;;;;14.68;9.65;;;;;;;;;;5004474;28;20490;-76
2022/09/24 12:57:41;;;;;;;13.52;9.40;;;;;;;;;;4998755;28;20022;-80
2022/09/24 13:00:38;;;;;;;12.20;8.68;;;;;;;;;;4983687;28;20038;-77
2022/09/24 13:03:05;;;;;;;12.05;9.00;;;;;;;;;;5000257;28;20056;-77
2022/09/24 13:05:47;;;;;;;12.35;9.25;;;;;;;;;;5001744;28;20026;-76
2022/09/24 13:08:13;;;;;;;12.52;8.85;;;;;;;;;;5000500;28;20101;-76
2022/09/24 13:10:38;;;;;;;13.05;8.55;;;;;;;;;;4994369;28;20038;-80
2022/09/24 13:13:24;;;;;;;11.32;7.95;;;;;;;;;;4996760;28;20048;-78
2022/09/24 13:16:17;;;;;;;11.43;8.15;;;;;;;;;;4997099;28;20405;-77
2022/09/24 13:18:51;;;;;;;11.30;8.03;;;;;;;;;;4995170;28;20034;-75
2022/09/24 13:21:28;;;;;;;10.65;8.05;;;;;;;;;;5000547;28;20662;-76
2022/09/24 13:23:55;;;;;;;15.90;7.38;;;;;;;;;;4999055;28;20030;-76
2022/09/24 13:26:23;;;;;;;10.68;7.53;;;;;;;;;;4997253;28;20033;-77
2022/09/24 13:28:57;;;;;;;12.30;7.82;;;;;;;;;;4996026;28;20080;-76
2022/09/24 13:31:46;;;;;;;10.48;7.15;;;;;;;;;;4999055;28;20478;-75
2022/09/24 13:34:24;;;;;;;10.63;6.85;;;;;;;;;;5011401;28;20057;-78
2022/09/24 13:37:09;;;;;;;9.73;6.40;;;;;;;;;;5003722;28;20069;-76
2022/09/24 13:39:42;;;;;;;8.93;6.10;;;;;;;;;;4998610;28;20026;-77
2022/09/24 13:42:19;;;;;;;10.40;6.57;;;;;;;;;;4994829;28;20057;-75
2022/09/24 13:44:54;;;;;;;9.90;5.70;;;;;;;;;;5003076;28;20062;-75
2022/09/24 13:47:42;;;;;;;8.70;5.60;;;;;;;;;;5010060;28;20034;-76
2022/09/24 13:50:15;;;;;;;7.00;4.75;;;;;;;;;;5029670;28;20428;-76
2022/09/24 13:52:51;;;;;;;6.60;4.93;;;;;;;;;;4994559;28;20474;-80
2022/09/24 13:55:22;;;;;;;6.53;4.05;;;;;;;;;;4997952;28;20033;-76
2022/09/24 13:57:48;;;;;;;5.78;3.78;;;;;;;;;;4999423;28;20624;-75
2022/09/24 14:00:19;;;;;;;5.80;3.70;;;;;;;;;;4996143;28;20029;-76
2022/09/24 14:02:57;;;;;;;5.55;3.53;;;;;;;;;;4999242;28;20509;-76
2022/09/24 14:05:23;;;;;;;5.40;3.53;;;;;;;;;;4998090;28;20465;-75
2022/09/24 14:08:11;;;;;;;4.40;3.00;;;;;;;;;;4999509;28;20029;-76
2022/09/24 14:10:38;;;;;;;5.10;3.22;;;;;;;;;;4997180;28;20036;-75
2022/09/24 14:13:16;;;;;;;5.47;3.83;;;;;;;;;;4997083;28;20478;-76
2022/09/24 14:15:53;;;;;;;5.22;3.80;;;;;;;;;;4999667;28;20140;-76
2022/09/24 14:18:19;;;;;;;5.25;3.22;;;;;;;;;;5006518;28;20099;-77
2022/09/24 14:20:51;;;;;;;7.60;3.75;;;;;;;;;;4999464;28;20518;-78
2022/09/24 14:23:20;;;;;;;6.28;4.30;;;;;;;;;;5001812;28;20112;-77
2022/09/24 14:25:48;;;;;;;6.30;4.15;;;;;;;;;;5001549;28;20034;-76
2022/09/24 14:28:15;;;;;;;6.95;4.53;;;;;;;;;;5015420;28;20448;-77
2022/09/24 14:30:53;;;;;;;7.07;5.00;;;;;;;;;;5001574;28;20116;-76
2022/09/24 14:33:24;;;;;;;7.20;4.82;;;;;;;;;;4998694;28;20040;-76
2022/09/24 14:35:53;;;;;;;7.13;5.38;;;;;;;;;;5013143;28;20029;-77
2022/09/24 14:38:28;;;;;;;5.95;4.53;;;;;;;;;;5006512;28;20505;-78
2022/09/24 14:41:05;;;;;;;8.18;4.55;;;;;;;;;;5005509;28;20061;-75
2022/09/24 14:43:46;;;;;;;8.45;4.50;;;;;;;;;;5003085;28;20076;-76
2022/09/24 14:46:29;;;;;;;6.35;4.50;;;;;;;;;;5001613;28;20030;-79
2022/09/24 14:49:16;;;;;;;6.85;4.78;;;;;;;;;;5015293;28;20615;-76
2022/09/24 14:51:57;;;;;;;7.25;4.47;;;;;;;;;;5000449;28;20104;-75
2022/09/24 14:54:32;;;;;;;5.75;4.28;;;;;;;;;;5030330;28;20041;-77
2022/09/24 14:57:16;;;;;;;6.05;3.60;;;;;;;;;;4999166;28;20038;-76
2022/09/24 14:59:41;;;;;;;10.05;4.05;;;;;;;;;;5005562;28;20057;-75
2022/09/24 15:02:35;;;;;;;7.47;3.67;;;;;;;;;;5000399;28;20044;-75
2022/09/24 15:05:05;;;;;;;5.25;3.90;;;;;;;;;;5013362;28;20386;-76
2022/09/24 15:07:32;;;;;;;5.03;3.33;;;;;;;;;;4992541;28;20149;-75
2022/09/24 15:10:00;;;;;;;4.95;3.35;;;;;;;;;;5005968;28;20118;-76
2022/09/24 15:12:29;;;;;;;6.93;3.55;;;;;;;;;;5001584;28;21978;-77
2022/09/24 15:15:26;;;;;;;5.18;2.80;;;;;;;;;;4997343;28;20401;-78